createdAt,value
2023-02-27T00:12:48.309Z,84.10
2023-02-27T00:16:26.870Z,84.40
2023-02-27T00:19:46.027Z,84.47
2023-02-27T00:23:04.236Z,84.43
2023-02-27T00:26:23.767Z,84.45
2023-02-27T00:33:31.681Z,84.49
2023-02-27T00:36:59.514Z,85.21
2023-02-27T00:40:16.827Z,85.11
2023-02-27T00:43:34.231Z,84.74
2023-02-27T00:47:18.733Z,85.16
2023-02-27T00:50:44.532Z,85.55
2023-02-27T00:54:10.190Z,85.38
2023-02-27T00:57:36.213Z,85.32
2023-02-27T01:01:02.308Z,85.12
2023-02-27T01:04:29.252Z,84.99
2023-02-27T01:07:55.136Z,85.13
2023-02-27T01:11:20.920Z,85.32
2023-02-27T01:14:50.812Z,85.25
2023-02-27T01:18:16.696Z,85.41
2023-02-27T01:21:43.479Z,85.53
2023-02-27T01:25:10.078Z,85.52
2023-02-27T01:28:35.860Z,85.71
2023-02-27T01:32:01.907Z,85.78
2023-02-27T01:35:27.518Z,85.74
2023-02-27T01:38:53.331Z,85.55
2023-02-27T01:42:21.347Z,85.76
2023-02-27T01:45:48.968Z,85.88
2023-02-27T01:49:18.002Z,86.07
2023-02-27T01:52:45.166Z,85.93
2023-02-27T01:56:13.728Z,86.18
2023-02-27T01:59:41.439Z,86.58
2023-02-27T02:03:03.690Z,86.86
2023-02-27T02:06:30.897Z,86.91
2023-02-27T02:09:59.174Z,86.90
2023-02-27T02:13:25.195Z,87.41
2023-02-27T02:17:01.536Z,87.58
2023-02-27T02:20:46.461Z,87.97
2023-02-27T02:24:34.414Z,88.20
2023-02-27T02:28:10.035Z,88.27
2023-02-27T02:31:47.316Z,88.21
2023-02-27T02:35:26.437Z,88.34
2023-02-27T02:38:58.148Z,88.74
2023-02-27T02:42:26.111Z,88.55
2023-02-27T02:45:57.376Z,88.48
2023-02-27T02:49:26.506Z,88.48
2023-02-27T02:52:56.137Z,88.64
2023-02-27T02:56:25.545Z,88.69
2023-02-27T02:59:54.584Z,88.74
2023-02-27T03:03:27.143Z,88.91
2023-02-27T03:06:55.831Z,89.15
2023-02-27T03:10:24.338Z,89.28
2023-02-27T03:13:52.374Z,89.36
2023-02-27T03:17:20.035Z,89.64
2023-02-27T03:20:48.465Z,90.15
2023-02-27T03:24:16.111Z,90.39
2023-02-27T03:27:44.465Z,90.49
2023-02-27T03:31:14.936Z,90.80
2023-02-27T03:34:41.455Z,91.03
2023-02-27T03:38:11.902Z,91.11
2023-02-27T03:41:40.646Z,91.55
2023-02-27T03:45:15.769Z,91.67
2023-02-27T03:48:44.573Z,91.85
2023-02-27T03:52:10.447Z,91.79
2023-02-27T03:55:39.424Z,91.77
2023-02-27T03:59:05.385Z,91.85
2023-02-27T04:02:31.367Z,91.85
2023-02-27T04:06:16.980Z,92.08
2023-02-27T04:09:51.240Z,92.18
2023-02-27T04:13:29.713Z,92.03
2023-02-27T04:17:05.271Z,91.86
2023-02-27T04:20:38.059Z,91.85
2023-02-27T04:24:06.464Z,91.81
2023-02-27T04:27:37.049Z,91.89
2023-02-27T04:31:06.530Z,92.20
2023-02-27T04:34:34.555Z,92.18
2023-02-27T04:38:01.940Z,92.17
2023-02-27T04:41:30.303Z,92.17
2023-02-27T04:44:57.857Z,92.33
2023-02-27T04:48:25.075Z,92.56
2023-02-27T04:51:54.277Z,92.76
2023-02-27T04:56:10.186Z,92.84
2023-02-27T04:59:15.923Z,92.94
2023-02-27T05:02:44.494Z,92.88
2023-02-27T05:06:11.604Z,93.08
2023-02-27T05:09:39.742Z,93.18
2023-02-27T05:13:07.522Z,93.48
2023-02-27T05:16:34.508Z,93.27
2023-02-27T05:20:00.625Z,93.38
2023-02-27T05:23:35.900Z,93.52
2023-02-27T05:27:13.762Z,93.68
2023-02-27T05:30:42.162Z,93.68
2023-02-27T05:34:10.963Z,93.75
2023-02-27T05:37:40.772Z,93.76
2023-02-27T05:41:09.344Z,93.83
2023-02-27T05:44:36.509Z,93.90
2023-02-27T05:48:04.882Z,93.98
2023-02-27T05:51:33.165Z,93.78
2023-02-27T05:55:01.714Z,93.56
2023-02-27T05:58:28.781Z,93.62
2023-02-27T06:01:54.773Z,93.58
2023-02-27T06:05:21.257Z,93.50
2023-02-27T06:08:47.533Z,93.65
2023-02-27T06:12:13.674Z,93.81
2023-02-27T06:15:39.823Z,93.82
2023-02-27T06:19:05.963Z,93.75
2023-02-27T06:22:32.874Z,93.86
2023-02-27T06:25:58.656Z,93.80
2023-02-27T06:29:24.751Z,93.64
2023-02-27T06:32:50.676Z,93.47
2023-02-27T06:36:16.370Z,93.32
2023-02-27T06:39:42.088Z,93.43
2023-02-27T06:43:07.791Z,93.35
2023-02-27T06:46:33.690Z,93.40
2023-02-27T06:49:59.476Z,93.11
2023-02-27T06:53:25.595Z,93.14
2023-02-27T06:56:52.045Z,92.92
2023-02-27T07:00:18.369Z,92.90
2023-02-27T07:03:44.182Z,93.06
2023-02-27T07:07:35.353Z,92.78
2023-02-27T07:10:55.924Z,92.16
2023-02-27T07:14:21.989Z,91.89
2023-02-27T07:17:38.163Z,91.65
2023-02-27T07:21:04.289Z,91.02
2023-02-27T07:24:30.184Z,90.77
2023-02-27T07:27:56.059Z,90.11
2023-02-27T07:31:21.871Z,89.67
2023-02-27T07:34:47.976Z,89.57
2023-02-27T07:38:13.809Z,89.25
2023-02-27T07:41:39.691Z,88.92
2023-02-27T07:45:06.022Z,88.70
2023-02-27T07:48:31.805Z,88.26
2023-02-27T07:51:57.727Z,88.15
2023-02-27T07:55:16.366Z,87.85
2023-02-27T07:58:42.016Z,87.95
2023-02-27T08:02:08.014Z,87.49
2023-02-27T08:05:33.688Z,86.98
2023-02-27T08:08:59.505Z,86.77
2023-02-27T08:12:25.282Z,86.28
2023-02-27T08:15:51.203Z,85.58
2023-02-27T08:19:17.308Z,85.42
2023-02-27T08:22:42.173Z,85.16
2023-02-27T08:26:08.081Z,84.51
2023-02-27T08:29:33.963Z,83.86
2023-02-27T08:32:59.735Z,83.87
2023-02-27T08:36:25.787Z,83.39
2023-02-27T08:39:51.639Z,83.14
2023-02-27T08:43:17.218Z,82.98
2023-02-27T08:46:42.830Z,82.08
2023-02-27T08:50:09.569Z,81.63
2023-02-27T08:53:44.026Z,80.78
2023-02-27T08:57:09.866Z,80.76
2023-02-27T09:00:35.631Z,80.61
2023-02-27T09:04:01.578Z,80.27
2023-02-27T09:07:27.243Z,79.59
2023-02-27T09:10:52.783Z,77.90
2023-02-27T09:14:18.861Z,78.20
2023-02-27T09:17:45.372Z,78.52
2023-02-27T09:21:11.521Z,77.72
2023-02-27T09:24:37.347Z,76.34
2023-02-27T09:28:02.941Z,76.31
2023-02-27T09:31:32.670Z,76.59
2023-02-27T09:34:58.990Z,76.25
2023-02-27T09:38:24.689Z,75.81
2023-02-27T09:41:58.532Z,73.70
2023-02-27T09:45:19.100Z,73.12
2023-02-27T09:48:47.876Z,71.69
2023-02-27T09:52:15.402Z,70.84
2023-02-27T09:55:42.671Z,70.66
2023-02-27T09:59:14.109Z,70.18
2023-02-27T10:02:45.576Z,70.19
2023-02-27T10:06:11.777Z,69.52
2023-02-27T10:09:42.773Z,69.19
2023-02-27T10:13:21.832Z,68.78
2023-02-27T10:16:49.502Z,67.69
2023-02-27T10:20:21.440Z,67.37
2023-02-27T10:23:50.613Z,66.91
2023-02-27T10:27:17.222Z,66.17
2023-02-27T10:30:42.999Z,65.47
2023-02-27T10:34:13.522Z,65.11
2023-02-27T10:37:32.008Z,65.80
2023-02-27T10:40:58.986Z,65.35
2023-02-27T10:44:18.700Z,66.49
2023-02-27T10:47:44.758Z,66.83
2023-02-27T10:51:24.214Z,64.87
2023-02-27T10:54:49.910Z,64.52
2023-02-27T10:58:20.737Z,63.62
2023-02-27T11:01:48.242Z,62.80
2023-02-27T11:05:20.372Z,61.39
2023-02-27T11:08:45.977Z,61.34
2023-02-27T11:12:28.510Z,60.06
2023-02-27T11:16:01.766Z,59.68
2023-02-27T11:19:33.448Z,59.71
2023-02-27T11:23:05.439Z,56.39
2023-02-27T11:26:57.431Z,54.72
2023-02-27T11:30:27.072Z,53.69
2023-02-27T11:33:54.633Z,53.43
2023-02-27T11:37:23.987Z,53.53
2023-02-27T11:40:52.286Z,54.04
2023-02-27T11:44:49.681Z,53.06
2023-02-27T11:48:11.883Z,52.01
2023-02-27T11:51:48.081Z,52.58
2023-02-27T11:55:18.104Z,52.79
2023-02-27T11:58:45.588Z,52.77
2023-02-27T12:02:16.458Z,52.79
2023-02-27T12:05:45.345Z,52.55
2023-02-27T12:09:21.158Z,53.35
2023-02-27T12:12:49.004Z,53.06
2023-02-27T12:16:24.822Z,52.06
2023-02-27T12:19:56.844Z,52.74
2023-02-27T12:23:25.089Z,53.34
2023-02-27T12:26:54.977Z,52.74
2023-02-27T12:30:23.399Z,52.41
2023-02-27T12:33:51.844Z,51.77
2023-02-27T12:37:25.155Z,52.19
2023-02-27T12:40:59.782Z,51.75
2023-02-27T12:44:34.512Z,52.02
2023-02-27T12:48:05.461Z,52.82
2023-02-27T12:51:42.314Z,53.05
2023-02-27T12:55:13.499Z,52.99
2023-02-27T12:58:43.726Z,53.13
2023-02-27T13:02:30.457Z,53.08
2023-02-27T13:05:54.590Z,53.50
2023-02-27T13:09:26.642Z,52.82
2023-02-27T13:12:56.630Z,52.69
2023-02-27T13:16:37.575Z,53.39
2023-02-27T13:20:06.233Z,53.36
2023-02-27T13:23:36.581Z,53.41
2023-02-27T13:27:04.828Z,53.99
2023-02-27T13:30:33.754Z,53.23
2023-02-27T13:34:08.485Z,52.18
2023-02-27T13:37:47.671Z,51.51
2023-02-27T13:41:28.099Z,51.53
2023-02-27T13:44:54.664Z,51.31
2023-02-27T13:48:40.080Z,51.62
2023-02-27T13:52:05.901Z,51.37
2023-02-27T13:55:35.247Z,51.85
2023-02-27T13:59:11.438Z,52.36
2023-02-27T14:02:56.447Z,52.51
2023-02-27T14:06:24.405Z,52.92
2023-02-27T14:09:52.119Z,53.21
2023-02-27T14:13:31.279Z,53.34
2023-02-27T14:21:09.191Z,52.90
2023-02-27T14:24:38.299Z,52.68
2023-02-27T14:28:19.636Z,51.77
2023-02-27T14:32:05.591Z,49.91
2023-02-27T14:35:31.522Z,49.81
2023-02-27T14:38:58.314Z,49.61
2023-02-27T14:42:31.052Z,49.94
2023-02-27T14:45:57.155Z,49.88
2023-02-27T14:49:26.271Z,49.37
2023-02-27T14:52:51.948Z,49.54
2023-02-27T14:56:20.301Z,49.18
2023-02-27T14:59:35.357Z,49.82
2023-02-27T15:03:01.735Z,50.23
2023-02-27T15:06:32.513Z,50.52
2023-02-27T15:09:59.304Z,50.80
2023-02-27T15:13:27.293Z,51.29
2023-02-27T15:16:56.695Z,52.18
2023-02-27T15:20:27.552Z,52.53
2023-02-27T15:23:57.146Z,52.55
2023-02-27T15:27:23.770Z,53.08
2023-02-27T15:30:50.596Z,53.65
2023-02-27T15:34:00.118Z,54.22
2023-02-27T15:37:27.179Z,54.87
2023-02-27T15:40:53.057Z,55.40
2023-02-27T15:44:21.658Z,55.76
2023-02-27T15:47:47.463Z,56.37
2023-02-27T15:51:14.428Z,56.75
2023-02-27T15:54:44.288Z,57.13
2023-02-27T15:58:03.796Z,57.46
2023-02-27T16:01:32.328Z,57.82
2023-02-27T16:04:58.776Z,58.10
2023-02-27T16:08:28.514Z,58.17
2023-02-27T16:12:07.858Z,58.35
2023-02-27T16:15:34.867Z,58.72
2023-02-27T16:19:02.688Z,59.00
2023-02-27T16:22:30.760Z,59.23
2023-02-27T16:26:02.717Z,59.23
2023-02-27T16:29:33.751Z,59.52
2023-02-27T16:32:59.951Z,59.75
2023-02-27T16:36:19.777Z,59.90
2023-02-27T16:39:45.453Z,60.09
2023-02-27T16:43:11.688Z,60.36
2023-02-27T16:46:37.651Z,60.46
2023-02-27T16:50:10.526Z,60.68
2023-02-27T16:54:27.548Z,60.93
2023-02-27T16:57:58.167Z,61.03
2023-02-27T17:01:35.341Z,61.16
2023-02-27T17:04:52.358Z,61.33
2023-02-27T17:08:22.914Z,61.47
2023-02-27T17:11:47.263Z,61.77
2023-02-27T17:19:15.336Z,62.07
2023-02-27T17:22:42.196Z,62.44
2023-02-27T17:26:07.881Z,62.44
2023-02-27T17:29:23.984Z,62.57
2023-02-27T17:32:49.791Z,62.66
2023-02-27T17:36:15.477Z,62.90
2023-02-27T17:39:44.266Z,62.97
2023-02-27T17:46:45.431Z,63.46
2023-02-27T17:50:12.144Z,63.78
2023-02-27T17:53:38.180Z,64.11
2023-02-27T17:57:04.937Z,64.57
2023-02-27T18:00:30.935Z,65.05
2023-02-27T18:03:57.083Z,65.12
2023-02-27T18:07:23.242Z,65.47
2023-02-27T18:10:31.507Z,65.74
2023-02-27T18:13:57.197Z,66.12
2023-02-27T18:17:02.864Z,66.47
2023-02-27T18:20:28.507Z,66.82
2023-02-27T18:23:54.154Z,66.97
2023-02-27T18:27:07.063Z,67.12
2023-02-27T18:30:34.106Z,67.60
2023-02-27T18:33:58.314Z,67.66
2023-02-27T18:37:14.940Z,67.92
2023-02-27T18:40:40.826Z,67.94
2023-02-27T18:44:05.112Z,68.19
2023-02-27T18:47:13.529Z,68.37
2023-02-27T18:50:21.702Z,68.41
2023-02-27T18:53:48.529Z,68.65
2023-02-27T18:57:03.047Z,68.75
2023-02-27T19:00:19.483Z,68.93
2023-02-27T19:03:45.217Z,69.01
2023-02-27T19:07:10.937Z,68.95
2023-02-27T19:10:16.707Z,69.03
2023-02-27T19:13:34.365Z,69.21
2023-02-27T19:17:07.464Z,69.36
2023-02-27T19:20:25.048Z,69.42
2023-02-27T19:23:50.873Z,69.41
2023-02-27T19:27:07.576Z,69.40
2023-02-27T19:30:13.993Z,69.56
2023-02-27T19:33:30.717Z,69.68
2023-02-27T19:36:36.285Z,69.74
2023-02-27T19:39:45.232Z,69.93
2023-02-27T19:42:51.418Z,70.06
2023-02-27T19:46:08.783Z,70.08
2023-02-27T19:49:34.424Z,70.09
2023-02-27T19:52:50.269Z,70.10
2023-02-27T19:56:00.056Z,70.21
2023-02-27T19:59:18.338Z,70.02
2023-02-27T20:02:27.380Z,70.14
2023-02-27T20:05:37.830Z,70.17
2023-02-27T20:09:03.598Z,70.19
2023-02-27T20:12:09.431Z,70.38
2023-02-27T20:15:24.818Z,70.35
2023-02-27T20:18:31.119Z,70.53
2023-02-27T20:21:47.678Z,70.63
2023-02-27T20:24:56.152Z,70.79
2023-02-27T20:28:23.910Z,70.94
2023-02-27T20:31:30.471Z,70.81
2023-02-27T20:34:39.186Z,71.00
2023-02-27T20:37:44.842Z,71.08
2023-02-27T20:40:51.018Z,71.16
2023-02-27T20:43:56.575Z,71.12
2023-02-27T20:47:12.077Z,71.16
2023-02-27T20:50:21.842Z,71.11
2023-02-27T20:53:27.428Z,71.27
2023-02-27T20:56:54.393Z,71.10
2023-02-27T21:00:02.295Z,71.20
2023-02-27T21:03:07.857Z,71.31
2023-02-27T21:06:14.713Z,71.29
2023-02-27T21:09:23.446Z,71.48
2023-02-27T21:12:29.014Z,71.50
2023-02-27T21:15:36.971Z,71.61
2023-02-27T21:18:44.253Z,71.96
2023-02-27T21:22:11.374Z,72.09
2023-02-27T21:25:40.940Z,72.30
2023-02-27T21:29:08.373Z,72.63
2023-02-27T21:32:26.683Z,72.55
2023-02-27T21:35:53.704Z,72.85
2023-02-27T21:39:20.329Z,72.95
2023-02-27T21:42:46.351Z,73.44
2023-02-27T21:46:13.784Z,73.65
2023-02-27T21:49:53.791Z,74.05
2023-02-27T21:53:11.171Z,74.32
2023-02-27T21:56:50.773Z,74.76
2023-02-27T22:00:29.628Z,75.20
2023-02-27T22:04:11.490Z,75.52
2023-02-27T22:07:30.450Z,75.83
2023-02-27T22:10:48.572Z,76.15
2023-02-27T22:14:09.411Z,76.51
2023-02-27T22:17:29.341Z,76.99
2023-02-27T22:21:04.765Z,76.99
2023-02-27T22:24:23.924Z,77.22
2023-02-27T22:27:41.822Z,77.46
2023-02-27T22:31:18.745Z,77.94
2023-02-27T22:34:38.616Z,78.20
2023-02-27T22:38:01.008Z,78.40
2023-02-27T22:41:26.595Z,78.75
2023-02-27T22:44:40.652Z,78.85
2023-02-27T22:47:59.889Z,78.91
2023-02-27T22:51:19.514Z,79.13
2023-02-27T22:54:38.473Z,79.32
2023-02-27T22:57:58.486Z,79.20
2023-02-27T23:01:16.784Z,79.23
2023-02-27T23:04:35.720Z,79.30
2023-02-27T23:07:54.881Z,79.74
2023-02-27T23:11:15.601Z,80.02
2023-02-27T23:14:38.068Z,80.21
2023-02-27T23:17:58.722Z,80.57
2023-02-27T23:21:20.228Z,80.79
2023-02-27T23:24:39.338Z,81.14
2023-02-27T23:27:57.187Z,81.53
2023-02-27T23:31:14.206Z,81.47
2023-02-27T23:35:04.922Z,81.56
2023-02-27T23:38:30.662Z,81.82
2023-02-27T23:42:03.243Z,82.08
2023-02-27T23:45:29.986Z,82.61
2023-02-27T23:48:56.074Z,82.83
2023-02-27T23:52:21.609Z,83.23
2023-02-27T23:55:47.670Z,83.35
2023-02-27T23:59:14.192Z,83.64
